sensor_id;sensor_type;location;lat;lon;timestamp;pressure;altitude;pressure_sealevel;temperature;humidity
4814;BME280;15375;48.540;9.268;2022-09-13T00:01:40;96976.69;;;14.40;100.00
4814;BME280;15375;48.540;9.268;2022-09-13T00:04:06;96967.44;;;14.47;100.00
4814;BME280;15375;48.540;9.268;2022-09-13T00:06:31;96965.75;;;14.49;100.00
4814;BME280;15375;48.540;9.268;2022-09-13T00:08:56;96959.03;;;14.50;100.00
4814;BME280;15375;48.540;9.268;2022-09-13T00:11:27;96973.25;;;14.58;100.00
4814;BME280;15375;48.540;9.268;2022-09-13T00:13:54;96967.03;;;14.57;100.00
4814;BME280;15375;48.540;9.268;2022-09-13T00:16:22;96940.00;;;14.25;100.00
4814;BME280;15375;48.540;9.268;2022-09-13T00:18:49;96947.44;;;14.16;100.00
4814;BME280;15375;48.540;9.268;2022-09-13T00:21:17;96940.75;;;14.17;100.00
4814;BME280;15375;48.540;9.268;2022-09-13T00:23:48;96963.25;;;14.33;100.00
4814;BME280;15375;48.540;9.268;2022-09-13T00:26:17;96952.16;;;14.15;100.00
4814;BME280;15375;48.540;9.268;2022-09-13T00:28:43;96954.78;;;14.19;100.00
4814;BME280;15375;48.540;9.268;2022-09-13T00:31:12;96952.28;;;14.33;100.00
4814;BME280;15375;48.540;9.268;2022-09-13T00:33:38;96950.06;;;14.50;100.00
4814;BME280;15375;48.540;9.268;2022-09-13T00:36:08;96920.00;;;14.37;100.00
4814;BME280;15375;48.540;9.268;2022-09-13T00:38:38;96941.69;;;14.53;100.00
4814;BME280;15375;48.540;9.268;2022-09-13T00:41:06;96955.47;;;14.81;100.00
4814;BME280;15375;48.540;9.268;2022-09-13T00:46:19;96962.97;;;14.80;100.00
4814;BME280;15375;48.540;9.268;2022-09-13T00:48:46;96965.69;;;14.71;100.00
4814;BME280;15375;48.540;9.268;2022-09-13T00:51:12;96971.16;;;14.62;100.00
4814;BME280;15375;48.540;9.268;2022-09-13T00:53:41;96957.84;;;14.51;100.00
4814;BME280;15375;48.540;9.268;2022-09-13T00:56:12;96969.44;;;14.55;100.00
4814;BME280;15375;48.540;9.268;2022-09-13T00:58:46;96954.81;;;14.28;100.00
4814;BME280;15375;48.540;9.268;2022-09-13T01:01:14;96975.34;;;14.45;100.00
4814;BME280;15375;48.540;9.268;2022-09-13T01:03:41;96967.53;;;14.34;100.00
4814;BME280;15375;48.540;9.268;2022-09-13T01:06:11;96954.81;;;14.28;100.00
4814;BME280;15375;48.540;9.268;2022-09-13T01:08:40;96967.22;;;14.32;100.00
4814;BME280;15375;48.540;9.268;2022-09-13T01:11:15;96962.66;;;14.38;100.00
4814;BME280;15375;48.540;9.268;2022-09-13T01:13:43;96951.63;;;14.29;100.00
4814;BME280;15375;48.540;9.268;2022-09-13T01:16:08;96953.94;;;14.31;100.00
4814;BME280;15375;48.540;9.268;2022-09-13T01:18:34;96937.84;;;14.20;100.00
4814;BME280;15375;48.540;9.268;2022-09-13T01:32:23;96919.97;;;13.76;100.00
4814;BME280;15375;48.540;9.268;2022-09-13T01:40:50;96939.97;;;13.85;100.00
4814;BME280;15375;48.540;9.268;2022-09-13T01:46:10;96932.91;;;13.54;100.00
4814;BME280;15375;48.540;9.268;2022-09-13T01:51:51;96938.81;;;13.52;100.00
4814;BME280;15375;48.540;9.268;2022-09-13T01:54:38;96944.75;;;13.72;100.00
4814;BME280;15375;48.540;9.268;2022-09-13T01:57:20;96936.53;;;13.72;100.00
4814;BME280;15375;48.540;9.268;2022-09-13T01:59:52;96957.25;;;13.73;100.00
4814;BME280;15375;48.540;9.268;2022-09-13T02:04:57;96938.97;;;13.70;100.00
4814;BME280;15375;48.540;9.268;2022-09-13T02:07:33;96955.03;;;13.81;100.00
4814;BME280;15375;48.540;9.268;2022-09-13T02:10:08;96940.44;;;13.84;100.00
4814;BME280;15375;48.540;9.268;2022-09-13T02:12:35;96934.56;;;13.73;100.00
4814;BME280;15375;48.540;9.268;2022-09-13T02:15:15;96949.81;;;13.74;100.00
4814;BME280;15375;48.540;9.268;2022-09-13T02:18:16;96942.72;;;13.64;100.00
4814;BME280;15375;48.540;9.268;2022-09-13T02:20:48;96931.69;;;13.55;100.00
4814;BME280;15375;48.540;9.268;2022-09-13T02:23:25;96944.50;;;13.58;100.00
4814;BME280;15375;48.540;9.268;2022-09-13T02:25:56;96935.97;;;13.56;100.00
4814;BME280;15375;48.540;9.268;2022-09-13T02:28:27;96959.53;;;13.75;100.00
4814;BME280;15375;48.540;9.268;2022-09-13T02:30:55;96950.25;;;13.51;100.00
4814;BME280;15375;48.540;9.268;2022-09-13T02:33:32;96962.53;;;13.46;100.00
4814;BME280;15375;48.540;9.268;2022-09-13T02:36:01;96982.25;;;13.54;100.00
4814;BME280;15375;48.540;9.268;2022-09-13T02:38:54;96964.56;;;13.33;100.00
4814;BME280;15375;48.540;9.268;2022-09-13T02:41:26;96972.22;;;13.60;100.00
4814;BME280;15375;48.540;9.268;2022-09-13T02:44:04;96972.66;;;13.36;100.00
4814;BME280;15375;48.540;9.268;2022-09-13T02:52:39;96973.56;;;13.33;100.00
4814;BME280;15375;48.540;9.268;2022-09-13T03:00:51;96954.28;;;13.24;100.00
4814;BME280;15375;48.540;9.268;2022-09-13T03:03:17;96980.38;;;13.29;100.00
4814;BME280;15375;48.540;9.268;2022-09-13T03:05:42;96974.22;;;13.25;100.00
4814;BME280;15375;48.540;9.268;2022-09-13T03:08:10;96967.94;;;12.90;100.00
4814;BME280;15375;48.540;9.268;2022-09-13T03:10:53;96959.41;;;12.88;100.00
4814;BME280;15375;48.540;9.268;2022-09-13T03:13:33;96973.63;;;12.96;100.00
4814;BME280;15375;48.540;9.268;2022-09-13T03:16:35;96978.41;;;13.17;100.00
4814;BME280;15375;48.540;9.268;2022-09-13T03:29:24;96944.16;;;13.12;100.00
4814;BME280;15375;48.540;9.268;2022-09-13T03:34:53;96934.09;;;12.97;100.00
4814;BME280;15375;48.540;9.268;2022-09-13T03:40:02;96906.16;;;12.67;100.00
4814;BME280;15375;48.540;9.268;2022-09-13T03:42:45;96924.94;;;12.78;100.00
4814;BME280;15375;48.540;9.268;2022-09-13T03:45:13;96922.00;;;12.72;100.00
4814;BME280;15375;48.540;9.268;2022-09-13T03:47:42;96927.72;;;12.65;100.00
4814;BME280;15375;48.540;9.268;2022-09-13T03:50:09;96933.59;;;12.76;100.00
4814;BME280;15375;48.540;9.268;2022-09-13T03:52:38;96916.78;;;12.65;100.00
4814;BME280;15375;48.540;9.268;2022-09-13T03:55:04;96916.75;;;12.78;100.00
4814;BME280;15375;48.540;9.268;2022-09-13T03:57:29;96904.81;;;12.72;100.00
4814;BME280;15375;48.540;9.268;2022-09-13T03:59:56;96904.91;;;12.81;100.00
4814;BME280;15375;48.540;9.268;2022-09-13T04:02:24;96912.31;;;12.93;100.00
4814;BME280;15375;48.540;9.268;2022-09-13T04:04:50;96884.63;;;12.91;100.00
4814;BME280;15375;48.540;9.268;2022-09-13T04:07:20;96901.06;;;12.91;100.00
4814;BME280;15375;48.540;9.268;2022-09-13T04:09:46;96901.16;;;12.88;100.00
4814;BME280;15375;48.540;9.268;2022-09-13T04:12:13;96899.19;;;12.88;100.00
4814;BME280;15375;48.540;9.268;2022-09-13T04:14:40;96913.63;;;13.01;100.00
4814;BME280;15375;48.540;9.268;2022-09-13T04:17:05;96898.53;;;12.84;100.00
4814;BME280;15375;48.540;9.268;2022-09-13T04:19:31;96883.59;;;12.76;100.00
4814;BME280;15375;48.540;9.268;2022-09-13T04:21:57;96896.72;;;12.81;100.00
4814;BME280;15375;48.540;9.268;2022-09-13T04:24:27;96912.56;;;12.86;100.00
4814;BME280;15375;48.540;9.268;2022-09-13T04:26:53;96914.19;;;12.96;100.00
4814;BME280;15375;48.540;9.268;2022-09-13T04:29:20;96917.44;;;13.04;100.00
4814;BME280;15375;48.540;9.268;2022-09-13T04:31:48;96914.41;;;12.89;100.00
4814;BME280;15375;48.540;9.268;2022-09-13T04:34:14;96916.56;;;12.94;100.00
4814;BME280;15375;48.540;9.268;2022-09-13T04:36:41;96924.03;;;13.06;100.00
4814;BME280;15375;48.540;9.268;2022-09-13T04:39:07;96918.63;;;13.03;100.00
4814;BME280;15375;48.540;9.268;2022-09-13T04:41:32;96912.13;;;12.88;100.00
4814;BME280;15375;48.540;9.268;2022-09-13T04:43:59;96902.00;;;12.63;100.00
4814;BME280;15375;48.540;9.268;2022-09-13T04:46:24;96888.88;;;12.58;100.00
4814;BME280;15375;48.540;9.268;2022-09-13T04:48:50;96924.63;;;12.76;100.00
4814;BME280;15375;48.540;9.268;2022-09-13T04:51:16;96951.59;;;12.99;100.00
4814;BME280;15375;48.540;9.268;2022-09-13T04:53:45;96933.91;;;12.91;100.00
4814;BME280;15375;48.540;9.268;2022-09-13T04:56:11;96943.94;;;12.94;100.00
4814;BME280;15375;48.540;9.268;2022-09-13T04:58:38;96932.84;;;12.76;100.00
4814;BME280;15375;48.540;9.268;2022-09-13T05:01:06;96953.13;;;13.00;100.00
4814;BME280;15375;48.540;9.268;2022-09-13T05:03:32;96951.94;;;13.01;100.00
4814;BME280;15375;48.540;9.268;2022-09-13T05:06:06;96955.97;;;12.97;100.00
4814;BME280;15375;48.540;9.268;2022-09-13T05:08:33;96945.72;;;12.88;100.00
4814;BME280;15375;48.540;9.268;2022-09-13T05:10:59;96924.94;;;12.78;100.00
4814;BME280;15375;48.540;9.268;2022-09-13T05:13:25;96936.72;;;13.00;100.00
4814;BME280;15375;48.540;9.268;2022-09-13T05:15:58;96953.91;;;13.35;100.00
4814;BME280;15375;48.540;9.268;2022-09-13T05:18:25;96934.38;;;13.46;100.00
4814;BME280;15375;48.540;9.268;2022-09-13T05:20:56;96940.75;;;13.42;100.00
4814;BME280;15375;48.540;9.268;2022-09-13T05:23:22;96952.47;;;13.65;100.00
4814;BME280;15375;48.540;9.268;2022-09-13T05:25:55;96943.50;;;13.64;100.00
4814;BME280;15375;48.540;9.268;2022-09-13T05:28:21;96928.66;;;13.74;100.00
4814;BME280;15375;48.540;9.268;2022-09-13T05:30:58;96936.94;;;13.92;100.00
4814;BME280;15375;48.540;9.268;2022-09-13T05:33:26;96959.75;;;14.11;100.00
4814;BME280;15375;48.540;9.268;2022-09-13T05:35:52;96971.09;;;14.22;100.00
4814;BME280;15375;48.540;9.268;2022-09-13T05:38:17;96957.47;;;14.40;100.00
4814;BME280;15375;48.540;9.268;2022-09-13T05:40:43;96965.03;;;15.61;100.00
4814;BME280;15375;48.540;9.268;2022-09-13T05:43:08;96956.59;;;15.92;92.95
4814;BME280;15375;48.540;9.268;2022-09-13T05:45:33;96951.75;;;17.65;83.17
4814;BME280;15375;48.540;9.268;2022-09-13T05:47:59;96957.59;;;17.20;82.93
4814;BME280;15375;48.540;9.268;2022-09-13T05:50:24;96968.44;;;16.25;88.61
4814;BME280;15375;48.540;9.268;2022-09-13T05:52:53;96980.69;;;16.15;91.58
4814;BME280;15375;48.540;9.268;2022-09-13T05:55:19;96971.56;;;16.51;87.86
4814;BME280;15375;48.540;9.268;2022-09-13T05:57:45;96986.06;;;16.51;88.53
4814;BME280;15375;48.540;9.268;2022-09-13T06:00:11;96975.81;;;16.01;90.33
4814;BME280;15375;48.540;9.268;2022-09-13T06:02:36;96970.50;;;15.98;91.71
4814;BME280;15375;48.540;9.268;2022-09-13T06:05:02;96967.97;;;16.36;91.09
4814;BME280;15375;48.540;9.268;2022-09-13T06:07:27;96964.09;;;17.32;84.56
4814;BME280;15375;48.540;9.268;2022-09-13T06:09:52;96967.69;;;18.00;81.06
4814;BME280;15375;48.540;9.268;2022-09-13T06:12:18;96928.63;;;18.36;75.90
4814;BME280;15375;48.540;9.268;2022-09-13T06:14:44;96956.91;;;18.60;76.01
4814;BME280;15375;48.540;9.268;2022-09-13T06:17:09;96959.84;;;18.57;77.54
4814;BME280;15375;48.540;9.268;2022-09-13T06:19:34;96965.16;;;20.21;70.06
4814;BME280;15375;48.540;9.268;2022-09-13T06:21:59;96984.28;;;21.19;66.66
4814;BME280;15375;48.540;9.268;2022-09-13T06:24:25;96976.22;;;20.47;68.32
4814;BME280;15375;48.540;9.268;2022-09-13T06:26:50;96962.22;;;20.98;66.24
4814;BME280;15375;48.540;9.268;2022-09-13T06:29:16;96973.28;;;21.41;66.12
4814;BME280;15375;48.540;9.268;2022-09-13T06:31:41;96970.75;;;22.24;63.55
4814;BME280;15375;48.540;9.268;2022-09-13T06:34:10;96983.19;;;23.69;58.09
4814;BME280;15375;48.540;9.268;2022-09-13T06:36:40;96990.16;;;24.39;53.89
4814;BME280;15375;48.540;9.268;2022-09-13T06:39:06;96994.91;;;24.49;52.02
4814;BME280;15375;48.540;9.268;2022-09-13T06:41:32;96989.13;;;24.01;53.44
4814;BME280;15375;48.540;9.268;2022-09-13T06:43:59;96982.63;;;24.28;53.64
4814;BME280;15375;48.540;9.268;2022-09-13T06:46:26;96980.72;;;24.06;53.92
4814;BME280;15375;48.540;9.268;2022-09-13T06:48:52;96958.66;;;23.68;54.97
4814;BME280;15375;48.540;9.268;2022-09-13T06:51:20;96970.91;;;23.31;55.30
4814;BME280;15375;48.540;9.268;2022-09-13T06:53:47;96978.59;;;24.29;52.93
4814;BME280;15375;48.540;9.268;2022-09-13T06:56:16;96974.38;;;26.61;48.77
4814;BME280;15375;48.540;9.268;2022-09-13T06:58:43;96975.50;;;27.81;45.15
4814;BME280;15375;48.540;9.268;2022-09-13T07:01:23;96981.19;;;26.34;47.73
4814;BME280;15375;48.540;9.268;2022-09-13T07:03:52;96962.28;;;26.40;46.86
4814;BME280;15375;48.540;9.268;2022-09-13T07:06:26;96969.56;;;25.92;48.72
4814;BME280;15375;48.540;9.268;2022-09-13T07:08:53;96975.47;;;24.38;53.12
4814;BME280;15375;48.540;9.268;2022-09-13T07:11:21;96983.81;;;24.38;53.52
4814;BME280;15375;48.540;9.268;2022-09-13T07:13:57;96976.59;;;22.87;56.02
4814;BME280;15375;48.540;9.268;2022-09-13T07:16:25;96956.63;;;22.55;58.02
4814;BME280;15375;48.540;9.268;2022-09-13T07:18:59;96970.75;;;22.18;58.82
4814;BME280;15375;48.540;9.268;2022-09-13T07:21:26;96970.41;;;21.83;61.85
4814;BME280;15375;48.540;9.268;2022-09-13T07:23:53;96912.16;;;22.66;59.84
4814;BME280;15375;48.540;9.268;2022-09-13T07:26:19;96960.75;;;23.51;56.46
4814;BME280;15375;48.540;9.268;2022-09-13T07:28:47;96961.22;;;23.60;55.09
4814;BME280;15375;48.540;9.268;2022-09-13T07:33:41;96948.28;;;22.39;59.84
4814;BME280;15375;48.540;9.268;2022-09-13T07:36:08;96960.94;;;22.62;60.61
4814;BME280;15375;48.540;9.268;2022-09-13T07:38:41;96961.69;;;22.40;61.82
4814;BME280;15375;48.540;9.268;2022-09-13T07:41:13;96968.50;;;22.50;60.49
4814;BME280;15375;48.540;9.268;2022-09-13T07:43:39;96943.25;;;22.32;60.26
4814;BME280;15375;48.540;9.268;2022-09-13T07:46:10;96970.03;;;22.90;59.35
4814;BME280;15375;48.540;9.268;2022-09-13T07:48:38;96955.00;;;21.71;62.41
4814;BME280;15375;48.540;9.268;2022-09-13T07:51:06;96967.25;;;22.35;62.21
4814;BME280;15375;48.540;9.268;2022-09-13T07:53:34;96955.13;;;22.38;62.03
4814;BME280;15375;48.540;9.268;2022-09-13T07:56:02;96946.03;;;22.70;59.99
4814;BME280;15375;48.540;9.268;2022-09-13T07:58:28;96958.53;;;23.32;57.48
4814;BME280;15375;48.540;9.268;2022-09-13T08:03:28;96929.94;;;23.26;58.96
4814;BME280;15375;48.540;9.268;2022-09-13T08:05:54;96931.78;;;23.18;58.52
4814;BME280;15375;48.540;9.268;2022-09-13T08:08:20;96922.47;;;22.99;60.07
4814;BME280;15375;48.540;9.268;2022-09-13T08:10:45;96915.59;;;23.11;58.77
4814;BME280;15375;48.540;9.268;2022-09-13T08:13:11;96918.66;;;22.97;59.95
4814;BME280;15375;48.540;9.268;2022-09-13T08:15:36;96913.88;;;22.97;61.37
4814;BME280;15375;48.540;9.268;2022-09-13T08:18:01;96915.53;;;23.80;59.76
4814;BME280;15375;48.540;9.268;2022-09-13T08:20:27;96925.19;;;23.79;58.74
4814;BME280;15375;48.540;9.268;2022-09-13T08:22:52;96914.16;;;24.38;58.68
4814;BME280;15375;48.540;9.268;2022-09-13T08:25:18;96899.31;;;24.54;56.69
4814;BME280;15375;48.540;9.268;2022-09-13T08:27:44;96898.47;;;25.32;55.76
4814;BME280;15375;48.540;9.268;2022-09-13T08:30:09;96911.13;;;25.57;54.88
4814;BME280;15375;48.540;9.268;2022-09-13T08:32:35;96925.09;;;25.14;55.67
4814;BME280;15375;48.540;9.268;2022-09-13T08:35:00;96913.75;;;25.68;53.30
4814;BME280;15375;48.540;9.268;2022-09-13T08:37:27;96892.09;;;25.74;54.37
4814;BME280;15375;48.540;9.268;2022-09-13T08:39:52;96903.78;;;26.10;51.75
4814;BME280;15375;48.540;9.268;2022-09-13T08:42:19;96911.06;;;26.32;51.86
4814;BME280;15375;48.540;9.268;2022-09-13T08:44:52;96898.50;;;26.38;49.92
4814;BME280;15375;48.540;9.268;2022-09-13T08:50:20;96919.22;;;26.30;49.98
4814;BME280;15375;48.540;9.268;2022-09-13T08:52:58;96912.09;;;25.97;50.68
4814;BME280;15375;48.540;9.268;2022-09-13T08:55:39;96919.22;;;26.30;53.24
4814;BME280;15375;48.540;9.268;2022-09-13T09:00:48;96898.06;;;26.34;50.43
4814;BME280;15375;48.540;9.268;2022-09-13T09:03:33;96914.34;;;26.17;52.31
4814;BME280;15375;48.540;9.268;2022-09-13T09:06:08;96926.06;;;26.47;51.22
4814;BME280;15375;48.540;9.268;2022-09-13T09:08:45;96920.28;;;26.72;51.11
4814;BME280;15375;48.540;9.268;2022-09-13T09:11:30;96920.28;;;26.72;51.63
4814;BME280;15375;48.540;9.268;2022-09-13T09:14:35;96926.19;;;27.13;50.75
4814;BME280;15375;48.540;9.268;2022-09-13T09:17:10;96916.44;;;26.75;53.79
4814;BME280;15375;48.540;9.268;2022-09-13T09:20:07;96907.25;;;26.61;52.88
4814;BME280;15375;48.540;9.268;2022-09-13T09:22:39;96886.38;;;26.49;53.85
4814;BME280;15375;48.540;9.268;2022-09-13T09:25:07;96873.72;;;26.74;51.53
4814;BME280;15375;48.540;9.268;2022-09-13T09:27:35;96868.81;;;26.35;52.11
4814;BME280;15375;48.540;9.268;2022-09-13T09:30:00;96859.66;;;26.35;53.70
4814;BME280;15375;48.540;9.268;2022-09-13T09:37:53;96865.78;;;27.17;49.32
4814;BME280;15375;48.540;9.268;2022-09-13T09:40:21;96879.53;;;27.42;48.54
4814;BME280;15375;48.540;9.268;2022-09-13T09:42:48;96871.72;;;26.30;51.21
4814;BME280;15375;48.540;9.268;2022-09-13T09:45:28;96860.47;;;27.53;47.85
4814;BME280;15375;48.540;9.268;2022-09-13T09:47:59;96869.47;;;28.06;47.35
4814;BME280;15375;48.540;9.268;2022-09-13T09:50:30;96870.25;;;27.47;48.92
4814;BME280;15375;48.540;9.268;2022-09-13T09:55:39;96882.63;;;27.64;48.83
4814;BME280;15375;48.540;9.268;2022-09-13T09:58:08;96865.53;;;27.89;50.62
4814;BME280;15375;48.540;9.268;2022-09-13T10:00:36;96863.09;;;28.47;46.36
4814;BME280;15375;48.540;9.268;2022-09-13T10:03:16;96869.38;;;28.40;46.72
4814;BME280;15375;48.540;9.268;2022-09-13T10:05:43;96887.03;;;28.27;47.05
4814;BME280;15375;48.540;9.268;2022-09-13T10:08:27;96891.47;;;28.02;46.75
4814;BME280;15375;48.540;9.268;2022-09-13T10:10:56;96887.03;;;27.60;48.88
4814;BME280;15375;48.540;9.268;2022-09-13T10:13:24;96888.38;;;27.19;50.57
4814;BME280;15375;48.540;9.268;2022-09-13T10:15:55;96896.25;;;27.08;52.49
4814;BME280;15375;48.540;9.268;2022-09-13T10:18:23;96904.63;;;27.94;49.33
4814;BME280;15375;48.540;9.268;2022-09-13T10:21:09;96898.59;;;27.90;48.53
4814;BME280;15375;48.540;9.268;2022-09-13T10:23:45;96911.47;;;28.19;50.09
4814;BME280;15375;48.540;9.268;2022-09-13T10:26:17;96920.78;;;27.54;50.53
4814;BME280;15375;48.540;9.268;2022-09-13T10:31:17;96887.41;;;27.56;46.98
4814;BME280;15375;48.540;9.268;2022-09-13T10:33:55;96892.41;;;27.71;48.17
4814;BME280;15375;48.540;9.268;2022-09-13T10:36:25;96891.38;;;27.61;46.53
4814;BME280;15375;48.540;9.268;2022-09-13T10:39:02;96896.13;;;27.53;47.43
4814;BME280;15375;48.540;9.268;2022-09-13T10:41:34;96891.28;;;28.41;46.11
4814;BME280;15375;48.540;9.268;2022-09-13T10:44:04;96880.59;;;28.81;44.03
4814;BME280;15375;48.540;9.268;2022-09-13T10:46:33;96881.44;;;28.69;45.76
4814;BME280;15375;48.540;9.268;2022-09-13T10:49:00;96860.00;;;29.15;42.75
4814;BME280;15375;48.540;9.268;2022-09-13T10:54:07;96871.13;;;27.42;44.40
4814;BME280;15375;48.540;9.268;2022-09-13T10:56:32;96871.66;;;28.41;43.65
4814;BME280;15375;48.540;9.268;2022-09-13T11:02:01;96887.72;;;29.46;43.47
4814;BME280;15375;48.540;9.268;2022-09-13T11:12:59;96867.66;;;28.58;42.02
4814;BME280;15375;48.540;9.268;2022-09-13T11:21:07;96856.63;;;29.44;41.77
4814;BME280;15375;48.540;9.268;2022-09-13T11:29:18;96848.56;;;29.48;42.59
4814;BME280;15375;48.540;9.268;2022-09-13T11:40:02;96856.38;;;28.99;42.69
4814;BME280;15375;48.540;9.268;2022-09-13T11:42:47;96856.25;;;29.12;42.28
4814;BME280;15375;48.540;9.268;2022-09-13T11:45:30;96863.06;;;28.68;44.14
4814;BME280;15375;48.540;9.268;2022-09-13T11:56:13;96846.28;;;29.39;43.45
4814;BME280;15375;48.540;9.268;2022-09-13T12:01:40;96849.81;;;29.76;44.75
4814;BME280;15375;48.540;9.268;2022-09-13T12:04:17;96830.84;;;29.76;44.14
4814;BME280;15375;48.540;9.268;2022-09-13T12:06:51;96833.53;;;29.97;41.25
4814;BME280;15375;48.540;9.268;2022-09-13T12:09:21;96833.75;;;30.14;44.82
4814;BME280;15375;48.540;9.268;2022-09-13T12:11:52;96816.53;;;30.48;43.29
4814;BME280;15375;48.540;9.268;2022-09-13T12:14:25;96809.38;;;30.31;40.84
4814;BME280;15375;48.540;9.268;2022-09-13T12:17:01;96822.50;;;30.74;42.97
4814;BME280;15375;48.540;9.268;2022-09-13T12:19:41;96810.88;;;30.78;41.33
4814;BME280;15375;48.540;9.268;2022-09-13T12:22:09;96816.69;;;30.27;42.17
4814;BME280;15375;48.540;9.268;2022-09-13T12:24:46;96815.00;;;30.09;41.01
4814;BME280;15375;48.540;9.268;2022-09-13T12:27:32;96832.13;;;29.60;43.40
4814;BME280;15375;48.540;9.268;2022-09-13T12:30:16;96825.00;;;29.59;42.31
4814;BME280;15375;48.540;9.268;2022-09-13T12:32:43;96829.25;;;29.01;44.10
4814;BME280;15375;48.540;9.268;2022-09-13T12:41:13;96800.41;;;29.01;38.79
4814;BME280;15375;48.540;9.268;2022-09-13T12:46:35;96821.56;;;30.04;40.15
4814;BME280;15375;48.540;9.268;2022-09-13T12:49:40;96814.28;;;30.16;37.31
4814;BME280;15375;48.540;9.268;2022-09-13T12:52:16;96814.94;;;29.79;39.84
4814;BME280;15375;48.540;9.268;2022-09-13T12:57:40;96809.59;;;29.45;40.02
4814;BME280;15375;48.540;9.268;2022-09-13T13:05:32;96798.69;;;29.34;40.82
4814;BME280;15375;48.540;9.268;2022-09-13T13:08:05;96786.41;;;28.73;41.96
4814;BME280;15375;48.540;9.268;2022-09-13T13:10:36;96777.38;;;28.95;41.58
4814;BME280;15375;48.540;9.268;2022-09-13T13:13:14;96768.84;;;28.72;39.50
4814;BME280;15375;48.540;9.268;2022-09-13T13:18:26;96776.38;;;28.85;38.05
4814;BME280;15375;48.540;9.268;2022-09-13T13:23:35;96775.81;;;28.30;38.33
4814;BME280;15375;48.540;9.268;2022-09-13T13:39:01;96760.97;;;28.50;39.28
4814;BME280;15375;48.540;9.268;2022-09-13T13:46:51;96752.59;;;28.58;40.13
4814;BME280;15375;48.540;9.268;2022-09-13T13:57:34;96754.84;;;28.52;42.48
4814;BME280;15375;48.540;9.268;2022-09-13T14:00:18;96745.06;;;28.73;41.26
4814;BME280;15375;48.540;9.268;2022-09-13T14:05:25;96745.94;;;28.61;42.46
4814;BME280;15375;48.540;9.268;2022-09-13T14:09:00;96739.50;;;28.53;41.43
4814;BME280;15375;48.540;9.268;2022-09-13T14:21:39;96731.03;;;28.45;43.81
4814;BME280;15375;48.540;9.268;2022-09-13T14:24:23;96720.50;;;28.38;43.00
4814;BME280;15375;48.540;9.268;2022-09-13T14:26:57;96729.69;;;28.38;43.78
4814;BME280;15375;48.540;9.268;2022-09-13T14:29:23;96712.50;;;28.42;42.59
4814;BME280;15375;48.540;9.268;2022-09-13T14:31:59;96711.00;;;28.41;43.70
4814;BME280;15375;48.540;9.268;2022-09-13T14:34:31;96706.63;;;28.61;43.52
4814;BME280;15375;48.540;9.268;2022-09-13T14:37:01;96735.19;;;28.80;43.44
4814;BME280;15375;48.540;9.268;2022-09-13T14:39:27;96705.41;;;28.77;41.97
4814;BME280;15375;48.540;9.268;2022-09-13T14:42:13;96712.16;;;28.81;42.00
4814;BME280;15375;48.540;9.268;2022-09-13T14:44:43;96700.34;;;28.75;42.04
4814;BME280;15375;48.540;9.268;2022-09-13T14:47:19;96699.94;;;28.64;42.14
4814;BME280;15375;48.540;9.268;2022-09-13T14:49:49;96707.13;;;28.80;42.76
4814;BME280;15375;48.540;9.268;2022-09-13T14:52:35;96708.94;;;28.70;42.67
4814;BME280;15375;48.540;9.268;2022-09-13T14:55:07;96695.44;;;28.68;42.44
4814;BME280;15375;48.540;9.268;2022-09-13T14:57:38;96672.88;;;28.45;43.42
4814;BME280;15375;48.540;9.268;2022-09-13T15:00:17;96684.09;;;28.45;44.43
4814;BME280;15375;48.540;9.268;2022-09-13T15:03:09;96683.25;;;28.30;44.11
4814;BME280;15375;48.540;9.268;2022-09-13T15:05:35;96678.50;;;28.17;44.84
4814;BME280;15375;48.540;9.268;2022-09-13T15:08:24;96690.88;;;28.22;44.41
4814;BME280;15375;48.540;9.268;2022-09-13T15:10:50;96678.16;;;28.21;44.96
4814;BME280;15375;48.540;9.268;2022-09-13T15:13:16;96656.75;;;27.82;46.28
4814;BME280;15375;48.540;9.268;2022-09-13T15:15:44;96667.00;;;27.79;46.41
4814;BME280;15375;48.540;9.268;2022-09-13T15:28:32;96666.41;;;27.53;48.16
4814;BME280;15375;48.540;9.268;2022-09-13T15:31:00;96661.22;;;27.36;48.25
4814;BME280;15375;48.540;9.268;2022-09-13T15:33:31;96651.16;;;27.20;48.73
4814;BME280;15375;48.540;9.268;2022-09-13T15:38:57;96654.09;;;27.35;49.93
4814;BME280;15375;48.540;9.268;2022-09-13T15:41:31;96650.00;;;27.36;49.06
4814;BME280;15375;48.540;9.268;2022-09-13T15:43:58;96654.94;;;27.43;49.60
4814;BME280;15375;48.540;9.268;2022-09-13T15:46:24;96632.66;;;27.38;50.08
4814;BME280;15375;48.540;9.268;2022-09-13T15:48:53;96640.19;;;27.43;49.66
4814;BME280;15375;48.540;9.268;2022-09-13T15:51:19;96614.06;;;27.27;49.81
4814;BME280;15375;48.540;9.268;2022-09-13T15:53:46;96615.09;;;27.16;50.42
4814;BME280;15375;48.540;9.268;2022-09-13T15:56:15;96619.78;;;27.21;50.53
4814;BME280;15375;48.540;9.268;2022-09-13T15:58:41;96619.00;;;27.13;51.13
4814;BME280;15375;48.540;9.268;2022-09-13T16:01:08;96599.38;;;26.93;50.98
4814;BME280;15375;48.540;9.268;2022-09-13T16:03:34;96610.97;;;26.63;52.21
4814;BME280;15375;48.540;9.268;2022-09-13T16:05:59;96601.84;;;26.63;52.21
4814;BME280;15375;48.540;9.268;2022-09-13T16:08:24;96595.06;;;26.58;52.40
4814;BME280;15375;48.540;9.268;2022-09-13T16:10:50;96593.78;;;26.46;52.79
4814;BME280;15375;48.540;9.268;2022-09-13T16:13:15;96580.28;;;26.37;52.94
4814;BME280;15375;48.540;9.268;2022-09-13T16:15:41;96601.31;;;26.51;53.44
4814;BME280;15375;48.540;9.268;2022-09-13T16:18:06;96588.97;;;26.46;53.96
4814;BME280;15375;48.540;9.268;2022-09-13T16:20:32;96603.91;;;26.49;54.51
4814;BME280;15375;48.540;9.268;2022-09-13T16:22:58;96587.03;;;26.41;54.35
4814;BME280;15375;48.540;9.268;2022-09-13T16:25:23;96596.81;;;26.48;54.83
4814;BME280;15375;48.540;9.268;2022-09-13T16:27:49;96592.22;;;26.37;55.18
4814;BME280;15375;48.540;9.268;2022-09-13T16:30:17;96588.25;;;26.33;55.03
4814;BME280;15375;48.540;9.268;2022-09-13T16:32:44;96595.13;;;26.32;56.03
4814;BME280;15375;48.540;9.268;2022-09-13T16:35:10;96604.47;;;26.34;57.30
4814;BME280;15375;48.540;9.268;2022-09-13T16:37:37;96594.47;;;26.26;56.80
4814;BME280;15375;48.540;9.268;2022-09-13T16:40:04;96592.34;;;26.19;56.89
4814;BME280;15375;48.540;9.268;2022-09-13T16:42:30;96585.47;;;26.07;57.67